createdAt,value
2019-04-14T00:04:29.001Z,6.30
2019-04-14T00:14:35.761Z,6.10
2019-04-14T00:24:42.338Z,6.00
2019-04-14T00:35:01.929Z,5.90
2019-04-14T00:45:34.011Z,5.80
2019-04-14T00:55:29.931Z,5.80
2019-04-14T01:05:36.004Z,5.70
2019-04-14T01:15:51.455Z,5.60
2019-04-14T01:25:49.861Z,5.50
2019-04-14T01:35:55.360Z,5.40
2019-04-14T01:46:09.693Z,5.30
2019-04-14T01:56:25.108Z,5.20
2019-04-14T02:06:31.283Z,5.10
2019-04-14T02:16:41.982Z,5.10
2019-04-14T02:26:43.911Z,5.00
2019-04-14T02:57:30.429Z,4.70
2019-04-14T03:07:37.373Z,4.60
2019-04-14T03:18:23.973Z,4.40
2019-04-14T03:28:36.591Z,4.20
2019-04-14T03:38:42.020Z,4.00
2019-04-14T03:58:24.857Z,3.80
2019-04-14T04:08:31.265Z,4.30
2019-04-14T04:18:47.393Z,4.40
2019-04-14T04:29:09.160Z,4.10
2019-04-14T04:39:19.346Z,4.00
2019-04-14T04:49:27.387Z,4.40
2019-04-14T04:59:32.120Z,5.20
2019-04-14T05:09:55.607Z,7.20
2019-04-14T05:20:01.000Z,9.10
2019-04-14T05:30:06.881Z,10.40
2019-04-14T05:40:12.451Z,11.50
2019-04-14T05:50:18.159Z,12.20
2019-04-14T06:00:23.613Z,12.60
2019-04-14T06:10:28.982Z,13.80
2019-04-14T06:20:34.938Z,13.80
2019-04-14T06:30:52.376Z,13.90
2019-04-14T06:41:00.922Z,13.80
2019-04-14T06:51:06.416Z,14.20
2019-04-14T07:01:11.922Z,14.50
2019-04-14T07:11:17.328Z,13.60
2019-04-14T07:21:22.643Z,13.20
2019-04-14T07:31:53.066Z,13.40
2019-04-14T07:42:17.462Z,13.50
2019-04-14T07:52:26.652Z,12.70
2019-04-14T08:02:53.817Z,12.10
2019-04-14T08:12:59.250Z,11.70
2019-04-14T08:23:04.562Z,11.30
2019-04-14T08:33:10.047Z,11.20
2019-04-14T08:43:49.425Z,11.50
2019-04-14T08:54:19.398Z,11.10
2019-04-14T09:04:38.389Z,11.20
2019-04-14T09:14:55.971Z,10.80
2019-04-14T09:24:51.100Z,10.70
2019-04-14T09:34:56.504Z,10.70
2019-04-14T09:45:01.984Z,10.50
2019-04-14T09:55:07.827Z,10.30
2019-04-14T10:05:13.279Z,10.30
2019-04-14T10:15:18.666Z,10.10
2019-04-14T10:25:24.223Z,10.20
2019-04-14T10:35:29.625Z,10.20
2019-04-14T10:45:35.039Z,10.40
2019-04-14T10:55:40.716Z,10.40
2019-04-14T11:06:09.958Z,10.50
2019-04-14T11:16:15.413Z,10.60
2019-04-14T11:26:23.233Z,10.60
2019-04-14T11:36:45.969Z,10.70
2019-04-14T11:46:53.040Z,10.80
2019-04-14T11:56:58.609Z,10.90
2019-04-14T12:07:28.847Z,11.30
2019-04-14T12:17:34.496Z,11.20
2019-04-14T12:27:40.136Z,11.30
2019-04-14T12:37:45.514Z,11.50
2019-04-14T12:48:13.749Z,11.60
2019-04-14T12:58:20.969Z,11.60
2019-04-14T13:08:26.480Z,11.80
2019-04-14T13:18:31.850Z,12.10
2019-04-14T13:28:37.342Z,11.90
2019-04-14T13:38:42.880Z,11.90
2019-04-14T13:48:48.480Z,12.00
2019-04-14T13:58:54.306Z,12.20
2019-04-14T14:08:59.884Z,12.10
2019-04-14T14:19:36.153Z,12.10
2019-04-14T14:29:41.491Z,12.30
2019-04-14T14:39:46.937Z,12.50
2019-04-14T14:50:05.262Z,12.50
2019-04-14T15:00:23.765Z,12.40
2019-04-14T15:10:29.150Z,12.30
2019-04-14T15:20:35.573Z,12.20
2019-04-14T15:30:40.960Z,12.10
2019-04-14T15:40:46.402Z,12.00
2019-04-14T15:50:51.718Z,11.90
2019-04-14T16:01:24.625Z,11.90
2019-04-14T16:11:43.080Z,11.70
2019-04-14T16:21:48.324Z,11.60
2019-04-14T16:32:21.450Z,11.50
2019-04-14T16:42:26.842Z,11.40
2019-04-14T16:52:41.527Z,11.00
2019-04-14T17:02:47.040Z,11.10
2019-04-14T17:12:52.410Z,10.90
2019-04-14T17:23:28.627Z,10.70
2019-04-14T17:33:39.180Z,10.50
2019-04-14T17:44:12.612Z,10.30
2019-04-14T17:54:35.182Z,10.10
2019-04-14T18:05:01.105Z,9.90
2019-04-14T18:15:14.928Z,9.70
2019-04-14T18:25:20.447Z,9.60
2019-04-14T18:35:30.378Z,9.30
2019-04-14T18:45:57.705Z,9.20
2019-04-14T18:56:14.122Z,9.00
2019-04-14T19:06:19.512Z,9.20
2019-04-14T19:16:39.966Z,8.70
2019-04-14T19:26:45.590Z,8.50
2019-04-14T19:37:04.778Z,8.30
2019-04-14T19:47:10.226Z,8.10
2019-04-14T19:57:24.379Z,7.90
2019-04-14T20:07:29.651Z,7.70
2019-04-14T20:17:59.097Z,7.50
2019-04-14T20:28:16.980Z,7.40
2019-04-14T20:38:23.326Z,7.20
2019-04-14T20:48:28.708Z,7.10
2019-04-14T20:58:34.225Z,7.00
2019-04-14T21:08:57.015Z,6.80
2019-04-14T21:19:21.160Z,6.60
2019-04-14T21:29:57.578Z,6.50
2019-04-14T21:40:30.934Z,6.40
2019-04-14T21:50:36.480Z,6.20
2019-04-14T22:01:44.116Z,6.00
2019-04-14T22:11:49.546Z,5.80
2019-04-14T22:21:54.842Z,5.70
2019-04-14T22:32:00.178Z,5.60
2019-04-14T22:42:05.672Z,5.40
2019-04-14T22:52:10.936Z,5.30
2019-04-14T23:02:28.048Z,5.20
2019-04-14T23:12:42.719Z,5.10
2019-04-14T23:23:19.135Z,4.90
2019-04-14T23:33:24.489Z,4.80
2019-04-14T23:43:29.834Z,4.70
2019-04-14T23:53:35.219Z,4.60
